createdAt,value
2022-09-22T00:01:34.120Z,94668.09
2022-09-22T00:04:07.201Z,94661.00
2022-09-22T00:06:39.090Z,94669.94
2022-09-22T00:09:10.549Z,94663.28
2022-09-22T00:11:41.117Z,94661.47
2022-09-22T00:14:11.079Z,94655.16
2022-09-22T00:16:40.811Z,94658.34
2022-09-22T00:19:10.122Z,94665.69
2022-09-22T00:21:38.039Z,94660.81
2022-09-22T00:24:08.845Z,94668.41
2022-09-22T00:26:38.130Z,94661.94
2022-09-22T00:29:08.102Z,94668.69
2022-09-22T00:31:37.797Z,94666.94
2022-09-22T00:34:06.301Z,94669.69
2022-09-22T00:36:34.227Z,94657.88
2022-09-22T00:39:02.464Z,94667.91
2022-09-22T00:41:38.151Z,94662.44
2022-09-22T00:44:34.040Z,94663.91
2022-09-22T00:47:07.409Z,94669.72
2022-09-22T00:49:42.982Z,94659.19
2022-09-22T00:52:12.413Z,94667.81
2022-09-22T00:54:40.635Z,94666.84
2022-09-22T00:57:15.330Z,94665.06
2022-09-22T00:59:46.936Z,94662.31
2022-09-22T01:02:15.182Z,94660.34
2022-09-22T01:04:43.232Z,94646.94
2022-09-22T01:07:13.864Z,94658.88
2022-09-22T01:09:41.709Z,94655.13
2022-09-22T01:12:11.943Z,94654.09
2022-09-22T01:14:55.947Z,94642.88
2022-09-22T01:17:34.676Z,94655.69
2022-09-22T01:20:46.013Z,94654.34
2022-09-22T01:23:43.559Z,94650.28
2022-09-22T01:26:34.201Z,94646.59
2022-09-22T01:29:24.707Z,94640.25
2022-09-22T01:32:03.789Z,94644.59
2022-09-22T01:34:35.261Z,94647.19
2022-09-22T01:37:10.720Z,94643.97
2022-09-22T01:39:43.485Z,94640.69
2022-09-22T01:42:18.045Z,94643.78
2022-09-22T01:44:54.964Z,94632.78
2022-09-22T01:47:28.429Z,94634.94
2022-09-22T01:50:01.374Z,94635.28
2022-09-22T01:52:33.262Z,94635.09
2022-09-22T01:55:05.718Z,94641.88
2022-09-22T01:57:39.296Z,94638.63
2022-09-22T02:00:10.016Z,94635.09
2022-09-22T02:02:45.199Z,94635.84
2022-09-22T02:05:21.165Z,94640.06
2022-09-22T02:07:53.372Z,94637.75
2022-09-22T02:10:26.976Z,94643.22
2022-09-22T02:12:55.663Z,94638.34
2022-09-22T02:15:41.217Z,94634.28
2022-09-22T02:18:16.198Z,94626.84
2022-09-22T02:20:44.056Z,94634.59
2022-09-22T02:23:11.919Z,94637.47
2022-09-22T02:25:42.223Z,94629.44
2022-09-22T02:28:11.257Z,94623.75
2022-09-22T02:30:39.523Z,94618.72
2022-09-22T02:33:07.853Z,94622.34
2022-09-22T02:35:40.906Z,94628.97
2022-09-22T02:38:14.326Z,94627.34
2022-09-22T02:40:48.487Z,94628.97
2022-09-22T02:43:24.455Z,94627.22
2022-09-22T02:45:58.941Z,94631.81
2022-09-22T02:48:32.094Z,94628.25
2022-09-22T02:51:01.879Z,94645.88
2022-09-22T02:53:29.784Z,94648.16
2022-09-22T02:55:57.635Z,94636.06
2022-09-22T02:58:25.516Z,94641.88
2022-09-22T03:00:53.384Z,94638.88
2022-09-22T03:03:21.284Z,94638.59
2022-09-22T03:05:51.500Z,94634.53
2022-09-22T03:08:23.743Z,94640.50
2022-09-22T03:10:51.677Z,94652.31
2022-09-22T03:13:20.690Z,94646.47
2022-09-22T03:15:49.777Z,94649.19
2022-09-22T03:18:17.745Z,94641.97
2022-09-22T03:20:45.841Z,94639.75
2022-09-22T03:23:13.948Z,94640.84
2022-09-22T03:25:43.207Z,94640.41
2022-09-22T03:28:11.096Z,94645.13
2022-09-22T03:30:40.362Z,94648.16
2022-09-22T03:33:08.400Z,94649.78
2022-09-22T03:35:36.340Z,94640.69
2022-09-22T03:38:04.526Z,94633.63
2022-09-22T03:40:32.692Z,94633.78
2022-09-22T03:43:01.964Z,94642.16
2022-09-22T03:45:29.908Z,94638.78
2022-09-22T03:47:59.029Z,94640.63
2022-09-22T03:50:28.364Z,94648.88
2022-09-22T03:52:56.259Z,94642.09
2022-09-22T03:55:24.615Z,94643.72
2022-09-22T03:57:52.605Z,94646.91
2022-09-22T04:00:21.898Z,94649.03
2022-09-22T04:02:50.097Z,94646.59
2022-09-22T04:05:18.078Z,94647.94
2022-09-22T04:07:45.991Z,94666.38
2022-09-22T04:10:13.848Z,94654.41
2022-09-22T04:12:41.691Z,94656.69
2022-09-22T04:15:10.596Z,94658.34
2022-09-22T04:17:39.906Z,94660.50
2022-09-22T04:20:11.345Z,94653.34
2022-09-22T04:22:39.873Z,94664.28
2022-09-22T04:25:09.393Z,94667.03
2022-09-22T04:27:37.282Z,94657.66
2022-09-22T04:30:05.946Z,94659.47
2022-09-22T04:32:33.783Z,94659.47
2022-09-22T04:35:03.282Z,94658.06
2022-09-22T04:37:31.166Z,94656.44
2022-09-22T04:40:00.089Z,94661.34
2022-09-22T04:42:28.202Z,94661.47
2022-09-22T04:45:01.930Z,94663.44
2022-09-22T04:47:30.402Z,94659.91
2022-09-22T04:49:58.231Z,94653.25
2022-09-22T04:52:28.078Z,94657.16
2022-09-22T04:54:55.909Z,94667.91
2022-09-22T04:57:23.792Z,94667.75
2022-09-22T04:59:51.639Z,94662.75
2022-09-22T05:02:19.803Z,94659.38
2022-09-22T05:04:50.798Z,94651.28
2022-09-22T05:07:18.609Z,94673.28
2022-09-22T05:09:48.953Z,94663.53
2022-09-22T05:12:17.600Z,94666.59
2022-09-22T05:14:45.469Z,94663.19
2022-09-22T05:17:16.545Z,94677.31
2022-09-22T05:19:55.541Z,94668.31
2022-09-22T05:22:23.657Z,94668.81
2022-09-22T05:24:52.908Z,94688.72
2022-09-22T05:27:23.168Z,94682.31
2022-09-22T05:29:51.056Z,94670.84
2022-09-22T05:32:18.921Z,94668.81
2022-09-22T05:34:47.068Z,94674.84
2022-09-22T05:37:16.522Z,94680.41
2022-09-22T05:39:48.114Z,94686.41
2022-09-22T05:42:17.345Z,94682.59
2022-09-22T05:44:45.178Z,94686.50
2022-09-22T05:47:13.552Z,94687.00
2022-09-22T05:49:49.493Z,94684.59
2022-09-22T05:52:18.459Z,94672.59
2022-09-22T05:54:46.558Z,94684.13
2022-09-22T05:57:14.477Z,94676.31
2022-09-22T05:59:43.809Z,94690.78
2022-09-22T06:02:25.124Z,94689.44
2022-09-22T06:04:55.457Z,94690.44
2022-09-22T06:07:25.500Z,94687.09
2022-09-22T06:09:58.216Z,94684.00
2022-09-22T06:12:26.356Z,94679.97
2022-09-22T06:14:56.625Z,94688.28
2022-09-22T06:17:27.275Z,94680.56
2022-09-22T06:19:55.173Z,94691.38
2022-09-22T06:22:24.297Z,94693.09
2022-09-22T06:24:52.397Z,94688.41
2022-09-22T06:27:20.324Z,94693.59
2022-09-22T06:29:48.284Z,94701.06
2022-09-22T06:32:19.565Z,94689.41
2022-09-22T06:34:47.467Z,94707.09
2022-09-22T06:37:16.190Z,94683.88
2022-09-22T06:39:44.342Z,94701.88
2022-09-22T06:42:13.530Z,94720.63
2022-09-22T06:44:41.560Z,94706.03
2022-09-22T06:47:10.212Z,94706.53
2022-09-22T06:49:39.587Z,94695.06
2022-09-22T06:52:10.501Z,94691.19
2022-09-22T06:54:39.907Z,94702.22
2022-09-22T06:57:07.909Z,94709.22
2022-09-22T06:59:39.057Z,94703.84
2022-09-22T07:02:07.573Z,94712.94
2022-09-22T07:04:36.094Z,94713.72
2022-09-22T07:07:05.473Z,94716.03
2022-09-22T07:09:33.468Z,94698.84
2022-09-22T07:12:01.453Z,94714.59
2022-09-22T07:14:29.709Z,94720.25
2022-09-22T07:16:57.978Z,94713.13
2022-09-22T07:19:25.851Z,94709.38
2022-09-22T07:21:53.771Z,94709.38
2022-09-22T07:24:23.439Z,94716.53
2022-09-22T07:26:51.367Z,94707.75
2022-09-22T07:29:19.252Z,94711.63
2022-09-22T07:31:47.217Z,94717.50
2022-09-22T07:34:16.462Z,94711.16
2022-09-22T07:36:45.113Z,94713.06
2022-09-22T07:39:13.028Z,94713.34
2022-09-22T07:41:43.734Z,94717.72
2022-09-22T07:44:30.576Z,94724.81
2022-09-22T07:46:58.877Z,94735.41
2022-09-22T07:49:26.904Z,94727.66
2022-09-22T07:51:55.434Z,94727.47
2022-09-22T07:54:23.536Z,94723.03
2022-09-22T07:56:58.763Z,94731.06
2022-09-22T07:59:27.478Z,94717.78
2022-09-22T08:01:55.863Z,94727.19
2022-09-22T08:04:26.865Z,94730.03
2022-09-22T08:06:56.555Z,94744.66
2022-09-22T08:09:25.382Z,94731.53
2022-09-22T08:11:55.194Z,94737.28
2022-09-22T08:14:24.087Z,94752.25
2022-09-22T08:16:53.368Z,94746.59
2022-09-22T08:19:24.726Z,94750.31
2022-09-22T08:21:54.558Z,94743.22
2022-09-22T08:24:23.674Z,94735.69
2022-09-22T08:26:55.833Z,94741.94
2022-09-22T08:29:24.442Z,94733.91
2022-09-22T08:31:52.384Z,94743.84
2022-09-22T08:34:21.868Z,94733.81
2022-09-22T08:36:49.939Z,94744.50
2022-09-22T08:39:18.989Z,94740.28
2022-09-22T08:42:05.870Z,94742.63
2022-09-22T08:44:45.856Z,94750.72
2022-09-22T08:47:39.673Z,94740.97
2022-09-22T08:50:42.029Z,94739.34
2022-09-22T08:53:15.746Z,94730.41
2022-09-22T08:55:48.504Z,94739.81
2022-09-22T08:58:30.680Z,94735.56
2022-09-22T09:01:06.057Z,94746.00
2022-09-22T09:03:54.908Z,94737.63
2022-09-22T09:06:35.117Z,94720.91
2022-09-22T09:09:20.296Z,94738.34
2022-09-22T09:12:14.184Z,94747.47
2022-09-22T09:15:01.399Z,94731.13
2022-09-22T09:17:31.691Z,94735.81
2022-09-22T09:20:04.797Z,94732.13
2022-09-22T09:22:43.664Z,94742.09
2022-09-22T09:25:23.396Z,94726.66
2022-09-22T09:27:57.215Z,94732.38
2022-09-22T09:30:26.911Z,94725.72
2022-09-22T09:32:57.684Z,94732.19
2022-09-22T09:35:39.740Z,94725.41
2022-09-22T09:38:14.714Z,94724.84
2022-09-22T09:40:43.406Z,94729.22
2022-09-22T09:43:12.101Z,94731.59
2022-09-22T09:45:51.393Z,94735.22
2022-09-22T09:48:30.064Z,94720.69
2022-09-22T09:51:03.647Z,94723.13
2022-09-22T09:53:33.519Z,94706.44
2022-09-22T09:56:01.749Z,94711.41
2022-09-22T09:58:46.178Z,94714.47
2022-09-22T10:01:16.514Z,94717.56
2022-09-22T10:03:49.709Z,94712.94
2022-09-22T10:06:25.344Z,94713.75
2022-09-22T10:08:53.620Z,94708.19
2022-09-22T10:11:31.136Z,94699.22
2022-09-22T10:13:59.635Z,94702.22
2022-09-22T10:16:30.745Z,94702.19
2022-09-22T10:19:22.046Z,94698.28
2022-09-22T10:21:50.127Z,94700.56
2022-09-22T10:24:31.696Z,94719.31
2022-09-22T10:27:02.507Z,94702.09
2022-09-22T10:29:33.340Z,94696.28
2022-09-22T10:32:13.329Z,94693.63
2022-09-22T10:37:19.148Z,94696.03
2022-09-22T10:39:50.261Z,94694.28
2022-09-22T10:42:29.022Z,94683.16
2022-09-22T10:45:02.278Z,94689.63
2022-09-22T10:47:52.011Z,94679.16
2022-09-22T10:50:39.209Z,94678.19
2022-09-22T10:53:27.514Z,94676.53
2022-09-22T10:56:04.484Z,94667.88
2022-09-22T10:58:46.945Z,94666.38
2022-09-22T11:01:33.084Z,94666.09
2022-09-22T11:04:26.610Z,94681.41
2022-09-22T11:07:32.526Z,94676.66
2022-09-22T11:10:35.084Z,94665.69
2022-09-22T11:13:15.200Z,94648.28
2022-09-22T11:15:57.840Z,94648.88
2022-09-22T11:18:39.905Z,94656.28
2022-09-22T11:21:22.676Z,94643.34
2022-09-22T11:24:18.215Z,94649.13
2022-09-22T11:26:51.511Z,94646.53
2022-09-22T11:29:52.282Z,94644.41
2022-09-22T11:32:38.261Z,94642.53
2022-09-22T11:35:41.930Z,94643.81
2022-09-22T11:38:29.778Z,94641.69
2022-09-22T11:41:18.485Z,94639.56
2022-09-22T11:44:01.396Z,94611.50
2022-09-22T11:46:40.329Z,94635.50
2022-09-22T11:49:19.843Z,94627.28
2022-09-22T11:52:00.977Z,94643.53
2022-09-22T11:54:47.863Z,94644.28
2022-09-22T11:57:23.669Z,94646.13
2022-09-22T11:59:55.888Z,94646.34
2022-09-22T12:02:27.778Z,94649.72
2022-09-22T12:05:00.640Z,94641.06
2022-09-22T12:07:32.744Z,94642.66
2022-09-22T12:10:06.590Z,94645.72
2022-09-22T12:12:35.337Z,94648.28
2022-09-22T12:15:09.292Z,94631.78
2022-09-22T12:17:44.896Z,94639.88
2022-09-22T12:20:32.136Z,94643.22
2022-09-22T12:23:28.538Z,94634.31
2022-09-22T12:26:03.124Z,94630.94
2022-09-22T12:28:33.207Z,94629.44
2022-09-22T12:31:08.047Z,94623.00
2022-09-22T12:36:07.948Z,94634.53
2022-09-22T12:38:35.989Z,94622.66
2022-09-22T12:41:06.473Z,94624.75
2022-09-22T12:43:37.442Z,94628.38
2022-09-22T12:46:15.458Z,94610.81
2022-09-22T12:48:50.649Z,94623.22
2022-09-22T12:51:31.592Z,94625.03
2022-09-22T12:54:37.898Z,94633.19
2022-09-22T12:57:28.644Z,94624.56
2022-09-22T12:59:59.976Z,94615.72
2022-09-22T13:02:31.417Z,94617.41
2022-09-22T13:05:34.087Z,94616.47
2022-09-22T13:08:02.401Z,94606.91
2022-09-22T13:11:01.199Z,94616.44
2022-09-22T13:13:42.140Z,94613.94
2022-09-22T13:16:33.637Z,94620.38
2022-09-22T13:19:02.491Z,94612.09
2022-09-22T13:21:32.773Z,94608.50
2022-09-22T13:24:02.296Z,94602.78
2022-09-22T13:26:32.925Z,94594.13
2022-09-22T13:29:04.860Z,94596.28
2022-09-22T13:31:44.193Z,94593.22
2022-09-22T13:34:19.615Z,94578.03
2022-09-22T13:36:49.142Z,94590.59
2022-09-22T13:39:19.513Z,94575.63
2022-09-22T13:41:50.914Z,94588.63
2022-09-22T13:44:25.807Z,94590.78
2022-09-22T13:46:55.613Z,94600.16
2022-09-22T13:49:31.028Z,94615.25
2022-09-22T13:52:04.015Z,94611.88
2022-09-22T13:54:35.876Z,94616.47
2022-09-22T13:57:07.697Z,94617.34
2022-09-22T13:59:43.024Z,94602.78
2022-09-22T14:02:13.777Z,94616.09
2022-09-22T14:04:50.817Z,94601.59
2022-09-22T14:07:20.681Z,94614.41
2022-09-22T14:09:50.351Z,94621.06
2022-09-22T14:12:18.649Z,94619.47
2022-09-22T14:14:47.885Z,94618.94
2022-09-22T14:17:19.823Z,94623.19
2022-09-22T14:20:00.817Z,94618.38
2022-09-22T14:22:34.919Z,94625.75
2022-09-22T14:25:04.436Z,94608.81
2022-09-22T14:27:35.276Z,94614.41
2022-09-22T14:30:06.941Z,94617.81
2022-09-22T14:32:38.471Z,94612.50
2022-09-22T14:35:09.343Z,94617.59
2022-09-22T14:37:41.500Z,94625.81
2022-09-22T14:40:16.971Z,94613.28
2022-09-22T14:42:57.574Z,94627.56
2022-09-22T14:45:30.998Z,94615.78
2022-09-22T14:48:17.918Z,94629.72
2022-09-22T14:50:48.850Z,94627.75
2022-09-22T14:53:23.034Z,94627.97
2022-09-22T14:55:53.322Z,94631.88
2022-09-22T14:58:25.074Z,94637.44
2022-09-22T15:01:14.279Z,94629.41
2022-09-22T15:03:45.268Z,94632.63
2022-09-22T15:06:15.526Z,94638.25
2022-09-22T15:08:48.895Z,94639.81
2022-09-22T15:11:18.916Z,94646.25
2022-09-22T15:13:50.831Z,94645.84
2022-09-22T15:16:41.228Z,94652.47
2022-09-22T15:19:13.211Z,94656.31
2022-09-22T15:21:47.867Z,94650.34
2022-09-22T15:24:21.303Z,94640.66
2022-09-22T15:26:49.647Z,94654.56
2022-09-22T15:29:17.728Z,94644.69
2022-09-22T15:31:47.883Z,94653.31
2022-09-22T15:34:16.858Z,94654.31
2022-09-22T15:36:50.069Z,94664.34
2022-09-22T15:39:22.501Z,94669.16
2022-09-22T15:41:50.913Z,94670.09
2022-09-22T15:44:19.058Z,94666.66
2022-09-22T15:46:51.809Z,94671.84
2022-09-22T15:49:24.888Z,94666.34
2022-09-22T15:56:15.352Z,94662.75
2022-09-22T15:59:15.264Z,94648.50
2022-09-22T16:02:08.108Z,94656.34
2022-09-22T16:05:03.117Z,94668.78
2022-09-22T16:07:54.281Z,94648.22
2022-09-22T16:10:45.078Z,94667.56
2022-09-22T16:14:00.450Z,94634.25
2022-09-22T16:20:51.163Z,94634.91
2022-09-22T16:23:51.988Z,94669.59
2022-09-22T16:31:00.333Z,94647.59
2022-09-22T16:34:13.812Z,94657.38
2022-09-22T16:40:11.635Z,94652.22
2022-09-22T16:46:59.731Z,94655.88
2022-09-22T16:50:30.154Z,94648.84
2022-09-22T16:53:33.957Z,94703.28
2022-09-22T16:56:02.537Z,94691.91
2022-09-22T16:58:31.400Z,94697.31
2022-09-22T17:01:03.008Z,94699.44
2022-09-22T17:03:31.334Z,94700.06
2022-09-22T17:06:05.603Z,94699.59
2022-09-22T17:08:35.916Z,94701.91
2022-09-22T17:11:05.668Z,94697.25
2022-09-22T17:13:34.423Z,94705.38
2022-09-22T17:16:10.096Z,94707.22
2022-09-22T17:18:40.242Z,94709.91
2022-09-22T17:21:09.127Z,94705.78
2022-09-22T17:23:39.766Z,94707.28
2022-09-22T17:26:12.616Z,94707.66
2022-09-22T17:28:41.527Z,94712.38
2022-09-22T17:31:09.487Z,94717.53
2022-09-22T17:33:46.931Z,94724.84
2022-09-22T17:36:19.507Z,94727.06
2022-09-22T17:38:51.373Z,94719.94
2022-09-22T17:41:20.722Z,94731.19
2022-09-22T17:43:52.282Z,94730.63
2022-09-22T17:46:21.668Z,94731.78
2022-09-22T17:49:07.513Z,94743.06
2022-09-22T17:51:54.605Z,94746.34
2022-09-22T17:54:43.653Z,94741.31
2022-09-22T17:57:14.266Z,94725.13
2022-09-22T17:59:42.630Z,94747.63
2022-09-22T18:02:12.676Z,94741.47
2022-09-22T18:04:41.263Z,94741.16
2022-09-22T18:07:11.465Z,94737.13
2022-09-22T18:09:44.325Z,94735.00
2022-09-22T18:12:14.762Z,94730.16
2022-09-22T18:14:46.403Z,94743.16
2022-09-22T18:17:15.995Z,94726.47
2022-09-22T18:19:54.440Z,94735.53
2022-09-22T18:22:23.775Z,94730.50
2022-09-22T18:24:55.723Z,94751.31
2022-09-22T18:27:26.997Z,94747.44
2022-09-22T18:29:58.760Z,94752.63
2022-09-22T18:32:27.510Z,94749.97
2022-09-22T18:34:57.333Z,94755.06
2022-09-22T18:37:26.557Z,94753.41
2022-09-22T18:39:56.196Z,94756.47
2022-09-22T18:42:26.353Z,94751.94
2022-09-22T18:44:54.629Z,94755.19
2022-09-22T18:47:24.185Z,94747.59
2022-09-22T18:49:52.419Z,94746.28
2022-09-22T18:52:23.981Z,94755.91
2022-09-22T18:54:53.271Z,94756.38
2022-09-22T18:57:24.421Z,94746.66
2022-09-22T18:59:52.418Z,94760.44
2022-09-22T19:02:22.872Z,94751.63
2022-09-22T19:04:52.000Z,94752.63
2022-09-22T19:07:41.426Z,94736.88
2022-09-22T19:10:11.757Z,94747.94
2022-09-22T19:13:03.521Z,94750.00
2022-09-22T19:15:32.071Z,94749.53
2022-09-22T19:17:59.997Z,94753.91
2022-09-22T19:20:34.995Z,94747.94
2022-09-22T19:23:06.452Z,94747.00
2022-09-22T19:25:35.242Z,94751.53
2022-09-22T19:28:05.485Z,94731.59
2022-09-22T19:30:34.317Z,94753.31
2022-09-22T19:33:03.448Z,94737.56
2022-09-22T19:35:34.088Z,94745.69
2022-09-22T19:38:05.278Z,94749.75
2022-09-22T19:40:34.174Z,94756.06
2022-09-22T19:43:04.030Z,94751.03
2022-09-22T19:45:32.203Z,94760.94
2022-09-22T19:48:00.178Z,94755.44
2022-09-22T19:50:28.073Z,94750.88
2022-09-22T19:52:55.951Z,94752.53
2022-09-22T19:55:23.831Z,94751.56
2022-09-22T19:57:52.351Z,94752.22
2022-09-22T20:00:26.427Z,94758.69
2022-09-22T20:02:58.635Z,94757.56
2022-09-22T20:05:29.209Z,94760.63
2022-09-22T20:07:57.168Z,94762.41
2022-09-22T20:10:25.560Z,94773.28
2022-09-22T20:12:53.865Z,94772.78
2022-09-22T20:15:22.130Z,94776.38
2022-09-22T20:17:50.001Z,94779.44
2022-09-22T20:20:19.941Z,94781.72
2022-09-22T20:22:48.950Z,94769.88
2022-09-22T20:25:25.563Z,94768.88
2022-09-22T20:27:53.572Z,94767.09
2022-09-22T20:30:23.296Z,94757.41
2022-09-22T20:32:52.650Z,94775.56
2022-09-22T20:35:21.975Z,94778.31
2022-09-22T20:37:51.608Z,94774.06
2022-09-22T20:40:24.373Z,94777.66
2022-09-22T20:42:54.551Z,94776.81
2022-09-22T20:45:24.849Z,94777.63
2022-09-22T20:47:55.006Z,94781.22
2022-09-22T20:50:25.351Z,94781.38
2022-09-22T20:52:53.666Z,94786.41
2022-09-22T20:55:22.110Z,94776.66
2022-09-22T20:57:50.221Z,94786.25
2022-09-22T21:00:18.376Z,94792.59
2022-09-22T21:02:47.789Z,94773.59
2022-09-22T21:05:16.098Z,94782.88
2022-09-22T21:07:44.153Z,94781.88
2022-09-22T21:10:29.676Z,94782.88
2022-09-22T21:12:58.641Z,94789.19
2022-09-22T21:15:26.700Z,94777.19
2022-09-22T21:17:56.212Z,94787.91
2022-09-22T21:20:24.273Z,94785.78
2022-09-22T21:22:54.221Z,94780.94
2022-09-22T21:25:25.580Z,94782.88
2022-09-22T21:27:55.116Z,94776.69
2022-09-22T21:30:23.243Z,94772.66
2022-09-22T21:32:51.389Z,94775.88
2022-09-22T21:35:20.794Z,94779.63
2022-09-22T21:37:48.892Z,94776.84
2022-09-22T21:40:17.657Z,94780.56
2022-09-22T21:42:45.740Z,94779.59
2022-09-22T21:45:14.087Z,94777.50
2022-09-22T21:47:42.082Z,94777.50
2022-09-22T21:50:10.861Z,94771.81
2022-09-22T21:52:40.099Z,94772.63
2022-09-22T21:55:08.836Z,94776.53
2022-09-22T21:57:36.671Z,94770.56
2022-09-22T22:00:07.552Z,94761.13
2022-09-22T22:02:55.850Z,94773.16
2022-09-22T22:05:23.721Z,94766.16
2022-09-22T22:07:53.020Z,94769.88
2022-09-22T22:10:21.390Z,94766.97
2022-09-22T22:12:49.482Z,94753.50
2022-09-22T22:15:17.646Z,94766.31
2022-09-22T22:17:45.661Z,94748.66
2022-09-22T22:20:13.511Z,94762.75
2022-09-22T22:22:41.355Z,94754.97
2022-09-22T22:25:17.409Z,94750.09
2022-09-22T22:27:45.817Z,94742.16
2022-09-22T22:30:14.415Z,94744.59
2022-09-22T22:32:42.559Z,94737.13
2022-09-22T22:35:11.745Z,94733.56
2022-09-22T22:37:39.928Z,94738.41
2022-09-22T22:40:08.754Z,94738.09
2022-09-22T22:42:38.310Z,94738.72
2022-09-22T22:45:06.912Z,94736.47
2022-09-22T22:47:34.935Z,94733.03
2022-09-22T22:50:02.856Z,94732.53
2022-09-22T22:52:31.330Z,94724.47
2022-09-22T22:54:59.208Z,94725.44
2022-09-22T22:57:27.092Z,94727.22
2022-09-22T22:59:57.098Z,94720.06
2022-09-22T23:02:24.957Z,94726.56
2022-09-22T23:04:53.286Z,94725.25
2022-09-22T23:07:21.234Z,94722.19
2022-09-22T23:10:06.011Z,94715.69
2022-09-22T23:12:34.628Z,94708.72
2022-09-22T23:15:04.568Z,94699.47
2022-09-22T23:17:32.671Z,94709.84
2022-09-22T23:20:00.537Z,94712.09
2022-09-22T23:22:28.351Z,94709.50
2022-09-22T23:24:56.245Z,94707.91
2022-09-22T23:27:24.221Z,94707.88
2022-09-22T23:29:52.282Z,94714.53
2022-09-22T23:32:21.495Z,94710.47
2022-09-22T23:34:49.310Z,94703.19
2022-09-22T23:37:17.234Z,94696.88
2022-09-22T23:39:45.128Z,94695.59
2022-09-22T23:42:13.075Z,94697.34
2022-09-22T23:44:40.990Z,94694.44
2022-09-22T23:47:12.180Z,94694.94
2022-09-22T23:49:43.528Z,94693.94
2022-09-22T23:52:11.540Z,94696.72
2022-09-22T23:54:39.396Z,94696.22
2022-09-22T23:57:07.280Z,94696.84
2022-09-22T23:59:35.135Z,94691.34
